createdAt,value
2022-11-26T00:00:42.202Z,6.20
2022-11-26T00:03:12.573Z,6.20
2022-11-26T00:05:40.454Z,6.30
2022-11-26T00:08:15.933Z,6.30
2022-11-26T00:10:42.705Z,6.30
2022-11-26T00:13:21.321Z,6.30
2022-11-26T00:15:49.056Z,6.30
2022-11-26T00:18:16.409Z,6.30
2022-11-26T00:20:43.527Z,6.30
2022-11-26T00:23:17.109Z,6.30
2022-11-26T00:25:44.910Z,6.30
2022-11-26T00:28:22.912Z,6.30
2022-11-26T00:30:49.602Z,6.30
2022-11-26T00:33:16.272Z,6.30
2022-11-26T00:35:42.936Z,6.30
2022-11-26T00:38:13.177Z,6.30
2022-11-26T00:40:40.776Z,6.30
2022-11-26T00:43:10.510Z,6.30
2022-11-26T00:45:37.244Z,6.30
2022-11-26T00:48:04.375Z,6.20
2022-11-26T00:50:38.887Z,6.20
2022-11-26T00:53:06.006Z,6.20
2022-11-26T00:55:51.029Z,6.10
2022-11-26T00:58:25.211Z,6.10
2022-11-26T01:00:52.270Z,6.10
2022-11-26T01:03:19.021Z,6.10
2022-11-26T01:05:48.500Z,6.10
2022-11-26T01:08:20.237Z,6.00
2022-11-26T01:10:47.145Z,6.00
2022-11-26T01:13:13.800Z,5.90
2022-11-26T01:15:41.464Z,5.90
2022-11-26T01:18:18.188Z,5.80
2022-11-26T01:20:44.930Z,5.80
2022-11-26T01:23:13.409Z,5.70
2022-11-26T01:25:40.585Z,5.70
2022-11-26T01:28:11.043Z,5.70
2022-11-26T01:31:05.836Z,5.70
2022-11-26T01:33:32.500Z,5.70
2022-11-26T01:35:59.158Z,5.80
2022-11-26T01:38:25.825Z,5.70
2022-11-26T01:41:12.864Z,5.70
2022-11-26T01:43:41.199Z,5.60
2022-11-26T01:46:19.039Z,5.60
2022-11-26T01:48:46.643Z,5.60
2022-11-26T01:51:15.531Z,5.60
2022-11-26T01:53:47.705Z,5.60
2022-11-26T01:56:17.708Z,5.60
2022-11-26T01:59:13.794Z,5.60
2022-11-26T02:01:40.563Z,5.60
2022-11-26T02:04:10.200Z,5.60
2022-11-26T02:06:36.935Z,5.60
2022-11-26T02:09:06.038Z,5.70
2022-11-26T02:11:32.658Z,5.70
2022-11-26T02:14:01.094Z,5.70
2022-11-26T02:16:39.973Z,5.80
2022-11-26T02:19:12.677Z,5.70
2022-11-26T02:21:40.906Z,5.70
2022-11-26T02:24:13.527Z,5.70
2022-11-26T02:27:10.096Z,5.80
2022-11-26T02:29:55.126Z,5.70
2022-11-26T02:32:24.027Z,5.80
2022-11-26T02:35:05.927Z,5.80
2022-11-26T02:37:35.611Z,5.80
2022-11-26T02:40:02.220Z,5.80
2022-11-26T02:42:33.141Z,5.80
2022-11-26T02:45:05.841Z,5.80
2022-11-26T02:47:32.790Z,5.80
2022-11-26T02:50:02.676Z,5.80
2022-11-26T02:52:30.147Z,5.80
2022-11-26T02:54:57.164Z,5.80
2022-11-26T02:57:25.397Z,5.80
2022-11-26T02:59:52.224Z,5.80
2022-11-26T03:02:25.913Z,5.80
2022-11-26T03:04:54.849Z,5.80
2022-11-26T03:07:21.827Z,5.80
2022-11-26T03:09:50.869Z,5.80
2022-11-26T03:12:17.587Z,5.90
2022-11-26T03:14:44.331Z,5.90
2022-11-26T03:17:10.935Z,5.90
2022-11-26T03:19:37.598Z,5.90
2022-11-26T03:22:04.317Z,5.90
2022-11-26T03:24:31.093Z,5.90
2022-11-26T03:26:57.697Z,5.80
2022-11-26T03:29:24.723Z,5.80
2022-11-26T03:31:51.502Z,5.70
2022-11-26T03:34:18.219Z,5.90
2022-11-26T03:36:44.832Z,5.90
2022-11-26T03:39:11.583Z,5.90
2022-11-26T03:41:38.846Z,5.90
2022-11-26T03:44:05.447Z,5.90
2022-11-26T03:46:32.117Z,5.90
2022-11-26T03:48:58.899Z,5.90
2022-11-26T03:51:25.516Z,6.00
2022-11-26T03:53:52.077Z,6.00
2022-11-26T03:56:18.681Z,6.00
2022-11-26T03:58:45.382Z,5.90
2022-11-26T04:01:12.706Z,5.90
2022-11-26T04:03:40.090Z,5.90
2022-11-26T04:06:07.135Z,5.90
2022-11-26T04:08:33.911Z,5.90
2022-11-26T04:11:00.507Z,5.90
2022-11-26T04:13:27.234Z,5.90
2022-11-26T04:15:53.874Z,5.90
2022-11-26T04:18:20.517Z,5.90
2022-11-26T04:20:52.619Z,5.90
2022-11-26T04:23:20.045Z,5.90
2022-11-26T04:25:46.702Z,5.90
2022-11-26T04:28:15.061Z,5.90
2022-11-26T04:30:42.399Z,5.90
2022-11-26T04:33:09.223Z,5.90
2022-11-26T04:35:35.881Z,6.00
2022-11-26T04:38:02.507Z,6.00
2022-11-26T04:40:29.366Z,5.90
2022-11-26T04:42:56.033Z,5.90
2022-11-26T04:45:22.734Z,6.00
2022-11-26T04:47:49.418Z,6.00
2022-11-26T04:50:16.099Z,6.00
2022-11-26T04:52:42.879Z,6.00
2022-11-26T04:55:09.643Z,5.90
2022-11-26T04:57:36.303Z,6.00
2022-11-26T05:00:03.119Z,5.90
2022-11-26T05:02:29.830Z,5.90
2022-11-26T05:04:56.484Z,5.90
2022-11-26T05:07:23.190Z,5.90
2022-11-26T05:09:49.826Z,5.90
2022-11-26T05:12:16.479Z,5.90
2022-11-26T05:14:43.196Z,5.90
2022-11-26T05:17:09.909Z,5.90
2022-11-26T05:19:36.528Z,5.90
2022-11-26T05:22:03.131Z,5.90
2022-11-26T05:24:29.782Z,6.00
2022-11-26T05:26:57.282Z,5.90
2022-11-26T05:29:24.385Z,6.00
2022-11-26T05:31:51.268Z,6.00
2022-11-26T05:34:18.023Z,6.00
2022-11-26T05:36:58.903Z,6.00
2022-11-26T05:39:25.530Z,6.00
2022-11-26T05:41:52.173Z,5.90
2022-11-26T05:44:18.875Z,5.90
2022-11-26T05:46:45.555Z,5.90
2022-11-26T05:49:12.279Z,5.80
2022-11-26T05:51:38.932Z,5.80
2022-11-26T05:54:07.434Z,5.80
2022-11-26T05:56:34.138Z,5.80
2022-11-26T05:59:00.921Z,5.80
2022-11-26T06:01:27.586Z,5.90
2022-11-26T06:03:54.253Z,5.90
2022-11-26T06:06:21.026Z,5.90
2022-11-26T06:08:47.822Z,5.90
2022-11-26T06:11:14.536Z,5.90
2022-11-26T06:13:41.204Z,5.90
2022-11-26T06:16:09.160Z,5.90
2022-11-26T06:18:38.941Z,5.90
2022-11-26T06:21:06.375Z,5.90
2022-11-26T06:23:33.638Z,5.90
2022-11-26T06:26:00.606Z,5.90
2022-11-26T06:28:27.410Z,5.90
2022-11-26T06:30:54.091Z,5.90
2022-11-26T06:33:20.684Z,5.90
2022-11-26T06:35:47.311Z,5.80
2022-11-26T06:38:13.954Z,5.80
2022-11-26T06:40:40.589Z,5.80
2022-11-26T06:43:07.231Z,5.90
2022-11-26T06:45:35.239Z,5.90
2022-11-26T06:48:01.930Z,5.90
2022-11-26T06:50:28.542Z,5.90
2022-11-26T06:52:56.052Z,5.90
2022-11-26T06:55:22.913Z,6.00
2022-11-26T06:57:50.806Z,6.00
2022-11-26T07:00:17.656Z,5.90
2022-11-26T07:02:44.328Z,5.90
2022-11-26T07:05:11.032Z,5.90
2022-11-26T07:07:38.313Z,6.00
2022-11-26T07:10:05.265Z,6.00
2022-11-26T07:12:31.919Z,5.90
2022-11-26T07:14:58.586Z,5.90
2022-11-26T07:17:25.236Z,6.00
2022-11-26T07:19:51.953Z,5.90
2022-11-26T07:22:18.613Z,6.00
2022-11-26T07:24:45.277Z,6.00
2022-11-26T07:27:11.905Z,6.00
2022-11-26T07:29:38.578Z,6.10
2022-11-26T07:32:05.253Z,6.10
2022-11-26T07:34:31.932Z,6.10
2022-11-26T07:36:58.567Z,6.10
2022-11-26T07:39:25.205Z,6.10
2022-11-26T07:41:51.865Z,6.20
2022-11-26T07:44:18.640Z,6.20
2022-11-26T07:46:45.311Z,6.20
2022-11-26T07:49:15.123Z,6.20
2022-11-26T07:51:41.862Z,6.20
2022-11-26T07:54:08.714Z,6.30
2022-11-26T07:56:35.812Z,6.30
2022-11-26T07:59:02.463Z,6.40
2022-11-26T08:01:32.201Z,6.40
2022-11-26T08:04:00.109Z,6.30
2022-11-26T08:06:33.346Z,6.40
2022-11-26T08:09:00.638Z,6.30
2022-11-26T08:11:28.269Z,6.30
2022-11-26T08:13:59.407Z,6.30
2022-11-26T08:16:28.825Z,6.40
2022-11-26T08:18:56.940Z,6.40
2022-11-26T08:21:23.615Z,6.40
2022-11-26T08:23:50.910Z,6.40
2022-11-26T08:26:27.451Z,6.40
2022-11-26T08:28:59.870Z,6.50
2022-11-26T08:31:28.097Z,6.50
2022-11-26T08:33:58.731Z,6.60
2022-11-26T08:36:26.109Z,6.50
2022-11-26T08:38:52.885Z,6.40
2022-11-26T08:41:19.491Z,6.40
2022-11-26T08:44:06.253Z,6.40
2022-11-26T08:46:34.113Z,6.40
2022-11-26T08:49:00.807Z,6.50
2022-11-26T08:51:27.432Z,6.50
2022-11-26T08:53:54.080Z,6.60
2022-11-26T08:56:20.735Z,6.60
2022-11-26T08:58:48.956Z,6.60
2022-11-26T09:01:20.005Z,6.70
2022-11-26T09:03:50.479Z,6.70
2022-11-26T09:06:17.596Z,6.70
2022-11-26T09:09:02.810Z,6.80
2022-11-26T09:11:29.447Z,6.80
2022-11-26T09:13:57.448Z,6.90
2022-11-26T09:16:24.267Z,7.00
2022-11-26T09:18:51.555Z,7.00
2022-11-26T09:21:18.663Z,7.00
2022-11-26T09:23:45.304Z,7.00
2022-11-26T09:26:11.911Z,7.00
2022-11-26T09:28:39.532Z,7.00
2022-11-26T09:31:06.583Z,7.00
2022-11-26T09:33:33.221Z,7.10
2022-11-26T09:36:05.576Z,7.20
2022-11-26T09:38:32.330Z,7.20
2022-11-26T09:41:14.737Z,7.30
2022-11-26T09:43:44.362Z,7.40
2022-11-26T09:46:12.438Z,7.40
2022-11-26T09:48:40.047Z,7.40
2022-11-26T09:51:12.787Z,7.30
2022-11-26T09:53:42.389Z,7.20
2022-11-26T09:56:20.010Z,7.20
2022-11-26T09:58:50.326Z,7.20
2022-11-26T10:01:19.263Z,7.20
2022-11-26T10:03:46.108Z,7.20
2022-11-26T10:06:28.409Z,7.20
2022-11-26T10:09:07.338Z,7.20
2022-11-26T10:11:33.946Z,7.30
2022-11-26T10:14:17.009Z,7.30
2022-11-26T10:16:46.317Z,7.20
2022-11-26T10:19:13.030Z,7.30
2022-11-26T10:21:58.317Z,7.40
2022-11-26T10:24:30.124Z,7.50
2022-11-26T10:26:57.627Z,7.60
2022-11-26T10:29:25.656Z,7.80
2022-11-26T10:32:00.410Z,7.90
2022-11-26T10:34:34.595Z,7.80
2022-11-26T10:37:04.318Z,7.90
2022-11-26T10:39:31.016Z,7.90
2022-11-26T10:42:03.187Z,7.90
2022-11-26T10:44:34.582Z,7.90
2022-11-26T10:47:21.710Z,7.90
2022-11-26T10:49:48.994Z,7.90
2022-11-26T10:52:23.417Z,8.00
2022-11-26T10:55:07.652Z,8.00
2022-11-26T10:57:35.330Z,8.10
2022-11-26T11:00:02.183Z,8.10
2022-11-26T11:02:39.155Z,8.20
2022-11-26T11:05:08.111Z,8.20
2022-11-26T11:07:38.017Z,8.20
2022-11-26T11:10:13.190Z,8.40
2022-11-26T11:12:41.089Z,8.40
2022-11-26T11:15:24.440Z,8.40
2022-11-26T11:17:57.234Z,8.40
2022-11-26T11:20:26.965Z,8.40
2022-11-26T11:22:57.873Z,8.40
2022-11-26T11:25:26.511Z,8.50
2022-11-26T11:27:54.231Z,8.70
2022-11-26T11:30:25.901Z,8.60
2022-11-26T11:32:55.585Z,8.60
2022-11-26T11:35:24.092Z,8.60
2022-11-26T11:37:53.730Z,8.30
2022-11-26T11:40:25.431Z,8.20
2022-11-26T11:43:00.128Z,8.20
2022-11-26T11:45:46.297Z,8.30
2022-11-26T11:48:15.262Z,8.40
2022-11-26T11:50:48.910Z,8.30
2022-11-26T11:53:22.975Z,8.40
2022-11-26T11:56:08.381Z,8.40
2022-11-26T11:58:45.225Z,8.40
2022-11-26T12:01:23.275Z,8.40
2022-11-26T12:04:15.112Z,8.40
2022-11-26T12:06:46.627Z,8.40
2022-11-26T12:09:20.615Z,8.30
2022-11-26T12:12:04.526Z,8.40
2022-11-26T12:14:41.143Z,8.40
2022-11-26T12:17:15.413Z,8.50
2022-11-26T12:19:54.142Z,8.40
2022-11-26T12:22:23.389Z,8.40
2022-11-26T12:25:09.419Z,8.30
2022-11-26T12:27:41.211Z,8.50
2022-11-26T12:30:31.369Z,8.50
2022-11-26T12:33:02.445Z,8.60
2022-11-26T12:35:36.902Z,8.40
2022-11-26T12:38:38.388Z,8.50
2022-11-26T12:41:15.176Z,8.40
2022-11-26T12:43:51.509Z,8.40
2022-11-26T12:46:27.656Z,8.40
2022-11-26T12:48:56.654Z,8.30
2022-11-26T12:51:26.648Z,8.30
2022-11-26T12:54:14.092Z,8.40
2022-11-26T12:56:52.255Z,8.40
2022-11-26T12:59:37.739Z,8.30
2022-11-26T13:02:18.521Z,8.30
2022-11-26T13:04:46.478Z,8.30
2022-11-26T13:07:28.409Z,8.30
2022-11-26T13:10:00.881Z,8.40
2022-11-26T13:12:30.355Z,8.30
2022-11-26T13:15:15.501Z,8.30
2022-11-26T13:17:43.995Z,8.20
2022-11-26T13:20:14.137Z,8.10
2022-11-26T13:22:56.018Z,8.10
2022-11-26T13:25:36.983Z,8.10
2022-11-26T13:28:11.356Z,8.00
2022-11-26T13:30:45.445Z,8.00
2022-11-26T13:33:35.480Z,7.90
2022-11-26T13:36:24.436Z,7.90
2022-11-26T13:39:00.163Z,7.90
2022-11-26T13:41:45.114Z,7.90
2022-11-26T13:44:30.548Z,7.90
2022-11-26T13:46:59.906Z,7.90
2022-11-26T13:49:29.419Z,7.90
2022-11-26T13:51:58.202Z,8.00
2022-11-26T13:54:43.844Z,8.00
2022-11-26T13:57:12.213Z,8.00
2022-11-26T13:59:45.452Z,8.00
2022-11-26T14:02:30.718Z,8.00
2022-11-26T14:04:57.402Z,7.90
2022-11-26T14:07:24.289Z,7.90
2022-11-26T14:09:54.794Z,7.90
2022-11-26T14:12:22.413Z,7.90
2022-11-26T14:14:52.175Z,7.90
2022-11-26T14:17:41.856Z,7.90
2022-11-26T14:20:09.149Z,7.90
2022-11-26T14:22:36.489Z,7.90
2022-11-26T14:25:07.648Z,7.90
2022-11-26T14:27:39.058Z,7.90
2022-11-26T14:30:08.832Z,7.90
2022-11-26T14:32:40.311Z,7.90
2022-11-26T14:35:19.155Z,7.90
2022-11-26T14:37:50.968Z,7.90
2022-11-26T14:40:31.300Z,7.90
2022-11-26T14:43:19.540Z,7.90
2022-11-26T14:46:04.724Z,7.90
2022-11-26T14:48:32.298Z,7.80
2022-11-26T14:51:00.320Z,7.80
2022-11-26T14:53:32.038Z,7.80
2022-11-26T14:55:59.303Z,7.70
2022-11-26T14:58:32.094Z,7.70
2022-11-26T15:01:04.059Z,7.70
2022-11-26T15:03:31.342Z,7.70
2022-11-26T15:05:58.057Z,7.60
2022-11-26T15:08:25.649Z,7.60
2022-11-26T15:10:54.335Z,7.60
2022-11-26T15:13:24.010Z,7.60
2022-11-26T15:15:55.327Z,7.60
2022-11-26T15:18:27.128Z,7.50
2022-11-26T15:20:54.123Z,7.50
2022-11-26T15:23:28.004Z,7.50
2022-11-26T15:25:55.073Z,7.50
2022-11-26T15:28:22.815Z,7.50
2022-11-26T15:30:59.865Z,7.40
2022-11-26T15:33:27.693Z,7.40
2022-11-26T15:35:57.382Z,7.30
2022-11-26T15:38:25.203Z,7.30
2022-11-26T15:40:58.056Z,7.30
2022-11-26T15:43:28.508Z,7.30
2022-11-26T15:45:57.537Z,7.30
2022-11-26T15:48:51.004Z,7.30
2022-11-26T15:51:33.694Z,7.20
2022-11-26T15:54:02.612Z,7.20
2022-11-26T15:56:32.459Z,7.40
2022-11-26T15:59:00.736Z,7.20
2022-11-26T16:01:29.248Z,7.20
2022-11-26T16:03:59.723Z,7.30
2022-11-26T16:06:33.880Z,7.20
2022-11-26T16:09:02.659Z,7.00
2022-11-26T16:11:34.686Z,6.90
2022-11-26T16:14:20.140Z,6.80
2022-11-26T16:16:46.819Z,6.80
2022-11-26T16:19:14.116Z,6.70
2022-11-26T16:21:47.050Z,6.70
2022-11-26T16:24:19.897Z,6.70
2022-11-26T16:26:53.831Z,6.70
2022-11-26T16:29:20.495Z,6.70
2022-11-26T16:31:47.098Z,6.80
2022-11-26T16:34:13.735Z,6.70
2022-11-26T16:36:41.556Z,6.70
2022-11-26T16:39:12.664Z,6.60
2022-11-26T16:41:39.264Z,6.60
2022-11-26T16:44:05.967Z,6.50
2022-11-26T16:46:34.487Z,6.50
2022-11-26T16:49:01.136Z,6.60
2022-11-26T16:51:28.412Z,6.60
2022-11-26T16:53:55.149Z,6.60
2022-11-26T16:56:24.894Z,6.60
2022-11-26T16:58:51.699Z,6.60
2022-11-26T17:01:18.381Z,6.60
2022-11-26T17:03:45.209Z,6.60
2022-11-26T17:06:22.943Z,6.60
2022-11-26T17:08:50.198Z,6.60
2022-11-26T17:11:17.350Z,6.60
2022-11-26T17:13:43.974Z,6.60
2022-11-26T17:16:15.756Z,6.60
2022-11-26T17:18:42.888Z,6.60
2022-11-26T17:21:09.787Z,6.60
2022-11-26T17:23:36.464Z,6.50
2022-11-26T17:26:03.944Z,6.50
2022-11-26T17:28:30.617Z,6.50
2022-11-26T17:30:57.349Z,6.50
2022-11-26T17:33:24.103Z,6.50
2022-11-26T17:35:50.791Z,6.50
2022-11-26T17:38:18.703Z,6.50
2022-11-26T17:40:46.348Z,6.40
2022-11-26T17:43:13.670Z,6.40
2022-11-26T17:45:40.552Z,6.40
2022-11-26T17:48:07.492Z,6.30
2022-11-26T17:50:36.146Z,6.30
2022-11-26T17:53:03.775Z,6.30
2022-11-26T17:55:31.310Z,6.30
2022-11-26T17:57:58.361Z,6.20
2022-11-26T18:00:28.114Z,6.20
2022-11-26T18:02:54.880Z,6.20
2022-11-26T18:05:22.265Z,6.20
2022-11-26T18:07:50.109Z,6.10
2022-11-26T18:10:18.061Z,6.00
2022-11-26T18:12:44.900Z,6.00
2022-11-26T18:15:37.931Z,5.90
2022-11-26T18:18:04.729Z,5.80
2022-11-26T18:20:31.433Z,5.80
2022-11-26T18:22:59.106Z,5.70
2022-11-26T18:25:26.189Z,5.60
2022-11-26T18:27:53.080Z,5.50
2022-11-26T18:30:19.965Z,5.40
2022-11-26T18:32:46.605Z,5.30
2022-11-26T18:35:13.625Z,5.30
2022-11-26T18:37:40.386Z,5.30
2022-11-26T18:40:07.924Z,5.20
2022-11-26T18:42:38.347Z,5.20
2022-11-26T18:45:09.635Z,5.10
2022-11-26T18:47:36.347Z,5.10
2022-11-26T18:50:03.376Z,5.00
2022-11-26T18:52:30.030Z,5.00
2022-11-26T18:54:56.690Z,5.00
2022-11-26T18:57:23.357Z,5.00
2022-11-26T18:59:50.660Z,4.90
2022-11-26T19:02:17.644Z,4.90
2022-11-26T19:04:44.374Z,4.90
2022-11-26T19:07:11.935Z,4.90
2022-11-26T19:09:39.094Z,4.80
2022-11-26T19:12:06.320Z,4.80
2022-11-26T19:14:33.093Z,4.70
2022-11-26T19:17:00.746Z,4.70
2022-11-26T19:19:28.151Z,4.70
2022-11-26T19:22:01.135Z,4.60
2022-11-26T19:24:28.764Z,4.60
2022-11-26T19:26:55.582Z,4.50
2022-11-26T19:29:24.649Z,4.50
2022-11-26T19:31:51.314Z,4.40
2022-11-26T19:34:28.594Z,4.30
2022-11-26T19:36:57.639Z,4.20
2022-11-26T19:39:24.998Z,4.20
2022-11-26T19:41:51.762Z,4.10
2022-11-26T19:44:18.467Z,4.10
2022-11-26T19:46:47.730Z,4.10
2022-11-26T19:49:14.991Z,4.10
2022-11-26T19:51:42.020Z,4.00
2022-11-26T19:54:08.957Z,3.90
2022-11-26T19:56:36.406Z,3.80
2022-11-26T19:59:03.542Z,3.80
2022-11-26T20:01:32.442Z,3.70
2022-11-26T20:04:00.137Z,3.60
2022-11-26T20:06:27.730Z,3.60
2022-11-26T20:08:54.959Z,3.60
2022-11-26T20:11:22.392Z,3.60
2022-11-26T20:13:49.447Z,3.60
2022-11-26T20:16:20.518Z,3.60
2022-11-26T20:18:47.684Z,3.50
2022-11-26T20:21:15.878Z,3.50
2022-11-26T20:23:42.770Z,3.50
2022-11-26T20:26:35.931Z,3.50
2022-11-26T20:29:07.939Z,3.50
2022-11-26T20:31:35.166Z,3.40
2022-11-26T20:34:03.032Z,3.30
2022-11-26T20:36:30.095Z,3.20
2022-11-26T20:38:57.876Z,3.20
2022-11-26T20:41:26.432Z,3.20
2022-11-26T20:43:58.234Z,3.20
2022-11-26T20:46:26.548Z,3.30
2022-11-26T20:48:53.262Z,3.30
2022-11-26T20:51:21.802Z,3.40
2022-11-26T20:53:50.444Z,3.40
2022-11-26T20:56:18.249Z,3.50
2022-11-26T20:58:45.427Z,3.60
2022-11-26T21:01:19.455Z,3.60
2022-11-26T21:03:46.169Z,3.70
2022-11-26T21:06:16.847Z,3.80
2022-11-26T21:08:43.794Z,3.80
2022-11-26T21:11:10.859Z,3.90
2022-11-26T21:13:38.225Z,3.90
2022-11-26T21:16:06.280Z,3.90
2022-11-26T21:18:33.662Z,3.80
2022-11-26T21:21:00.577Z,3.90
2022-11-26T21:23:27.599Z,3.90
2022-11-26T21:25:54.363Z,3.90
2022-11-26T21:28:21.070Z,3.90
2022-11-26T21:30:47.930Z,3.90
2022-11-26T21:33:14.586Z,3.90
2022-11-26T21:35:41.268Z,3.90
2022-11-26T21:38:07.915Z,3.80
2022-11-26T21:40:34.544Z,3.80
2022-11-26T21:43:01.207Z,3.80
2022-11-26T21:45:29.176Z,3.70
2022-11-26T21:47:55.916Z,3.60
2022-11-26T21:50:23.126Z,3.60
2022-11-26T21:52:49.811Z,3.60
2022-11-26T21:55:16.504Z,3.60
2022-11-26T21:57:43.131Z,3.70
2022-11-26T22:00:10.043Z,3.70
2022-11-26T22:02:36.772Z,3.70
2022-11-26T22:05:03.534Z,3.70
2022-11-26T22:07:30.715Z,3.70
2022-11-26T22:09:57.493Z,3.60
2022-11-26T22:12:24.942Z,3.60
2022-11-26T22:14:51.597Z,3.50
2022-11-26T22:17:18.288Z,3.40
2022-11-26T22:19:44.912Z,3.40
2022-11-26T22:22:11.617Z,3.30
2022-11-26T22:24:38.204Z,3.20
2022-11-26T22:27:04.887Z,3.10
2022-11-26T22:29:31.516Z,3.10
2022-11-26T22:31:58.348Z,3.00
2022-11-26T22:34:26.897Z,2.90
2022-11-26T22:36:53.640Z,2.90
2022-11-26T22:39:20.354Z,2.80
2022-11-26T22:41:48.818Z,2.80
2022-11-26T22:44:16.052Z,2.70
2022-11-26T22:46:42.881Z,2.70
2022-11-26T22:49:14.055Z,2.70
2022-11-26T22:51:41.902Z,2.70
2022-11-26T22:54:10.739Z,2.70
2022-11-26T22:56:40.321Z,2.60
2022-11-26T22:59:07.946Z,2.60
2022-11-26T23:01:35.756Z,2.50
2022-11-26T23:04:03.839Z,2.50
2022-11-26T23:06:30.812Z,2.50
2022-11-26T23:08:57.971Z,2.40
2022-11-26T23:11:26.435Z,2.40
2022-11-26T23:13:53.502Z,2.30
2022-11-26T23:16:21.242Z,2.20
2022-11-26T23:18:48.118Z,2.20
2022-11-26T23:21:16.171Z,2.20
2022-11-26T23:23:42.911Z,2.20
2022-11-26T23:26:13.769Z,2.20
2022-11-26T23:28:40.524Z,2.20
2022-11-26T23:31:08.632Z,2.10
2022-11-26T23:33:35.633Z,2.10
2022-11-26T23:36:02.457Z,2.10
2022-11-26T23:38:30.483Z,2.10
2022-11-26T23:40:59.650Z,2.10
2022-11-26T23:43:26.493Z,2.00
2022-11-26T23:46:03.699Z,2.00
2022-11-26T23:48:30.587Z,1.90
2022-11-26T23:50:59.036Z,1.80
2022-11-26T23:53:25.899Z,1.80
2022-11-26T23:55:52.576Z,1.70
2022-11-26T23:58:19.232Z,1.70
